Time;durP1;ratioP1;P1;durP2;ratioP2;P2;SDS_P1;SDS_P2;PMS_P1;PMS_P2;Temp;Humidity;BMP_temperature;BMP_pressure;BME280_temperature;BME280_humidity;BME280_pressure;Samples;Min_cycle;Max_cycle;Signal;HPM_P1;HPM_P2
2021/03/05 00:02:09;;;;;;;11.43;3.30;;;;;;;;;;4851078;29;20049;-90
2021/03/05 00:04:40;;;;;;;9.80;2.95;;;;;;;;;;4872562;29;20061;-89
2021/03/05 00:07:16;;;;;;;11.20;3.10;;;;;;;;;;4854086;29;20053;-92
2021/03/05 00:09:53;;;;;;;11.68;3.20;;;;;;;;;;4873261;29;20045;-92
2021/03/05 00:12:24;;;;;;;16.88;4.25;;;;;;;;;;4865853;29;20049;-93
2021/03/05 00:18:26;;;;;;;9.75;2.92;;;;;;;;;;4849373;29;20053;-94
2021/03/05 00:21:10;;;;;;;10.30;2.45;;;;;;;;;;4847143;29;20053;-93
2021/03/05 00:23:55;;;;;;;14.40;3.17;;;;;;;;;;4857240;29;20048;-91
2021/03/05 00:26:31;;;;;;;11.18;2.30;;;;;;;;;;4861197;29;20068;-92
2021/03/05 00:29:19;;;;;;;9.35;3.00;;;;;;;;;;4383903;29;15158104;-93
2021/03/05 00:32:20;;;;;;;13.85;3.63;;;;;;;;;;4872103;29;20037;-93
2021/03/05 00:35:10;;;;;;;15.07;3.17;;;;;;;;;;4851405;29;20406;-93
2021/03/05 00:37:41;;;;;;;16.05;3.75;;;;;;;;;;4874336;29;20082;-93
2021/03/05 00:40:17;;;;;;;17.38;4.97;;;;;;;;;;4803531;29;20053;-93
2021/03/05 00:43:05;;;;;;;9.85;3.95;;;;;;;;;;4869167;29;20060;-92
2021/03/05 00:45:37;;;;;;;9.93;3.25;;;;;;;;;;4887359;29;20059;-93
2021/03/05 00:48:35;;;;;;;7.15;2.75;;;;;;;;;;4862442;29;20059;-92
2021/03/05 00:51:32;;;;;;;4.50;2.47;;;;;;;;;;4866946;29;20055;-93
2021/03/05 00:54:24;;;;;;;13.15;4.50;;;;;;;;;;4862944;29;20041;-93
2021/03/05 00:57:10;;;;;;;15.73;2.85;;;;;;;;;;4856234;29;20049;-93
2021/03/05 00:59:48;;;;;;;11.10;3.28;;;;;;;;;;4896812;29;20075;-92
2021/03/05 01:02:24;;;;;;;9.60;3.63;;;;;;;;;;4865848;29;20049;-91
2021/03/05 01:05:04;;;;;;;14.93;3.72;;;;;;;;;;4864246;29;20057;-92
2021/03/05 01:07:49;;;;;;;3.70;3.03;;;;;;;;;;4868079;29;20061;-94
2021/03/05 01:10:42;;;;;;;11.13;3.37;;;;;;;;;;4855487;29;20489;-93
2021/03/05 01:13:26;;;;;;;15.93;4.28;;;;;;;;;;4867665;29;20294;-91
2021/03/05 01:15:59;;;;;;;6.53;2.90;;;;;;;;;;4866929;29;20073;-93
2021/03/05 01:19:13;;;;;;;8.75;3.00;;;4.70;99.90;;;;;;4865005;29;20048;-92
2021/03/05 01:21:58;;;;;;;12.98;3.88;;;;;;;;;;4859444;29;20061;-94
2021/03/05 01:24:47;;;;;;;11.18;4.82;;;;;;;;;;4860283;29;20045;-92
2021/03/05 01:27:36;;;;;;;11.60;2.93;;;;;;;;;;4856674;29;20065;-92
2021/03/05 01:30:24;;;;;;;12.02;3.83;;;;;;;;;;4882306;29;20055;-92
2021/03/05 01:33:15;;;;;;;14.20;3.42;;;;;;;;;;4867963;29;20067;-90
2021/03/05 01:35:47;;;;;;;8.23;3.58;;;;;;;;;;4849838;29;20074;-92
2021/03/05 01:38:17;;;;;;;11.70;2.92;;;;;;;;;;4880144;29;20063;-92
2021/03/05 01:40:49;;;;;;;12.00;4.45;;;;;;;;;;4849818;29;20056;-92
2021/03/05 01:43:23;;;;;;;12.38;3.75;;;4.40;99.90;;;;;;4881601;29;20059;-92
2021/03/05 01:46:10;;;;;;;8.13;3.58;;;4.50;99.90;;;;;;4852307;29;20057;-92
2021/03/05 01:48:52;;;;;;;8.98;3.75;;;;;;;;;;4841483;29;20053;-91
2021/03/05 01:51:32;;;;;;;6.80;4.10;;;;;;;;;;4851596;29;20052;-93
2021/03/05 01:54:16;;;;;;;14.05;3.30;;;;;;;;;;4879921;29;20061;-93
2021/03/05 01:57:00;;;;;;;9.70;4.32;;;;;;;;;;4866956;29;20060;-93
2021/03/05 01:59:34;;;;;;;7.18;2.88;;;;;;;;;;4864232;29;20053;-93
2021/03/05 02:02:19;;;;;;;10.52;4.30;;;;;;;;;;4865076;29;20054;-91
2021/03/05 02:05:07;;;;;;;8.68;3.22;;;;;;;;;;4855004;29;20051;-92
2021/03/05 02:07:37;;;;;;;14.88;4.82;;;;;;;;;;4895442;29;20063;-92
2021/03/05 02:10:10;;;;;;;25.50;3.92;;;;;;;;;;4864651;29;20052;-92
2021/03/05 02:12:40;;;;;;;15.13;5.07;;;4.40;99.90;;;;;;4879142;29;20045;-92
2021/03/05 02:15:13;;;;;;;13.50;3.15;;;;;;;;;;4895030;29;20057;-92
2021/03/05 02:18:04;;;;;;;11.80;3.63;;;;;;;;;;4868530;29;20064;-91
2021/03/05 02:21:00;;;;;;;9.25;3.45;;;;;;;;;;4870303;29;20075;-92
2021/03/05 02:24:06;;;;;;;12.70;3.83;;;;;;;;;;4872469;29;20041;-92
2021/03/05 02:27:30;;;;;;;10.00;3.45;;;4.50;99.90;;;;;;4849546;29;20054;-91
2021/03/05 02:30:39;;;;;;;8.35;4.85;;;;;;;;;;4859993;29;20033;-92
2021/03/05 02:33:45;;;;;;;14.82;3.20;;;;;;;;;;4883692;29;20049;-93
2021/03/05 02:36:23;;;;;;;9.40;6.30;;;;;;;;;;4869284;29;20045;-93
2021/03/05 02:39:07;;;;;;;17.15;4.55;;;;;;;;;;4885207;29;20057;-94
2021/03/05 02:41:58;;;;;;;15.68;3.55;;;4.50;99.90;;;;;;4871292;29;20037;-93
2021/03/05 02:44:51;;;;;;;14.07;4.95;;;;;;;;;;4855506;29;20043;-94
2021/03/05 02:47:28;;;;;;;20.27;6.05;;;4.40;99.90;;;;;;4884973;29;20049;-93
2021/03/05 02:50:16;;;;;;;10.73;4.03;;;;;;;;;;4883234;29;20063;-93
2021/03/05 02:52:48;;;;;;;11.73;4.53;;;4.40;99.90;;;;;;4884573;29;20041;-93
2021/03/05 02:55:29;;;;;;;8.95;3.17;;;;;;;;;;4883150;29;20035;-92
2021/03/05 02:58:01;;;;;;;13.63;3.95;;;4.30;99.90;;;;;;4870653;29;20040;-92
2021/03/05 03:00:33;;;;;;;14.30;5.05;;;;;;;;;;4884848;29;20051;-92
2021/03/05 03:03:19;;;;;;;12.85;4.47;;;;;;;;;;4863117;29;20047;-91
2021/03/05 03:05:51;;;;;;;7.13;3.45;;;4.40;99.90;;;;;;4886335;29;20057;-92
2021/03/05 03:08:33;;;;;;;11.45;5.25;;;;;;;;;;4871208;29;20051;-92
2021/03/05 03:11:05;;;;;;;6.28;2.47;;;;;;;;;;4869508;29;20049;-92
2021/03/05 03:13:39;;;;;;;8.23;2.95;;;;;;;;;;4868007;29;20041;-93
2021/03/05 03:16:12;;;;;;;10.88;4.40;;;4.40;99.90;;;;;;4865439;29;20057;-92
2021/03/05 03:18:58;;;;;;;13.63;3.17;;;;;;;;;;4880979;29;20055;-92
2021/03/05 03:21:37;;;;;;;14.32;3.72;;;4.30;99.90;;;;;;4867508;29;20049;-94
2021/03/05 03:24:23;;;;;;;18.83;5.10;;;;;;;;;;4868969;29;20045;-94
2021/03/05 03:26:53;;;;;;;11.57;2.78;;;;;;;;;;4869334;29;20053;-93
2021/03/05 03:29:41;;;;;;;10.50;4.63;;;;;;;;;;4855278;29;20037;-93
2021/03/05 03:32:26;;;;;;;16.88;4.05;;;;;;;;;;4887255;24;20111;-93
2021/03/05 03:34:58;;;;;;;11.13;3.58;;;;;;;;;;4867500;29;20036;-93
2021/03/05 03:37:32;;;;;;;8.23;2.85;;;4.30;99.90;;;;;;4872080;29;20033;-94
2021/03/05 03:40:20;;;;;;;8.68;3.13;;;4.30;99.90;;;;;;4854925;29;20059;-94
2021/03/05 03:43:12;;;;;;;13.30;3.40;;;;;;;;;;4851940;29;20060;-93
2021/03/05 03:45:53;;;;;;;15.95;4.63;;;;;;;;;;4874345;29;20045;-94
2021/03/05 03:48:43;;;;;;;15.35;4.20;;;;;;;;;;4867218;29;20051;-94
2021/03/05 03:51:28;;;;;;;26.80;5.43;;;4.10;99.90;;;;;;4880807;29;20065;-94
2021/03/05 03:54:05;;;;;;;7.57;3.67;;;;;;;;;;4864639;29;20053;-92
2021/03/05 03:56:37;;;;;;;7.15;4.30;;;4.00;99.90;;;;;;4848998;29;20058;-93
2021/03/05 03:59:11;;;;;;;13.05;4.13;;;4.20;99.90;;;;;;4853725;29;20052;-94
2021/03/05 04:01:43;;;;;;;14.73;4.55;;;;;;;;;;4897928;29;20053;-94
2021/03/05 04:04:30;;;;;;;8.35;3.42;;;;;;;;;;4867936;29;20059;-94
2021/03/05 04:07:06;;;;;;;5.93;2.95;;;;;;;;;;4850881;29;20033;-92
2021/03/05 04:09:42;;;;;;;15.05;3.13;;;;;;;;;;4856483;29;20033;-94
2021/03/05 04:12:13;;;;;;;9.60;3.67;;;;;;;;;;4868577;29;20040;-94
2021/03/05 04:14:42;;;;;;;16.52;3.50;;;;;;;;;;4855610;29;20041;-93
2021/03/05 04:17:12;;;;;;;16.13;3.40;;;;;;;;;;4869129;29;20057;-96
2021/03/05 04:19:42;;;;;;;20.40;7.47;;;;;;;;;;4884006;29;20047;-94
2021/03/05 04:22:24;;;;;;;20.73;5.18;;;;;;;;;;4848873;29;20049;-92
2021/03/05 04:25:00;;;;;;;16.60;5.00;;;;;;;;;;4853873;29;20057;-92
2021/03/05 04:27:38;;;;;;;10.60;3.17;;;;;;;;;;4865506;29;20063;-95
2021/03/05 04:30:22;;;;;;;12.82;3.63;;;;;;;;;;4869074;29;20041;-93
2021/03/05 04:33:19;;;;;;;16.27;3.95;;;;;;;;;;4895411;24;20041;-92
2021/03/05 04:36:04;;;;;;;7.00;2.47;;;3.30;99.90;;;;;;4866747;29;20053;-93
2021/03/05 04:38:49;;;;;;;10.88;2.85;;;;;;;;;;4882655;29;20060;-93
2021/03/05 04:41:32;;;;;;;7.65;3.38;;;;;;;;;;4852795;29;20053;-93
2021/03/05 04:44:06;;;;;;;6.82;2.78;;;;;;;;;;4849172;29;20060;-93
2021/03/05 04:46:40;;;;;;;11.65;5.97;;;;;;;;;;4866269;29;20033;-93
2021/03/05 04:49:37;;;;;;;6.15;2.92;;;2.90;99.90;;;;;;4855186;29;20037;-93
2021/03/05 04:52:20;;;;;;;15.10;3.47;;;;;;;;;;4883188;29;20039;-93
2021/03/05 04:55:09;;;;;;;4.70;2.60;;;;;;;;;;4885223;29;20428;-92
2021/03/05 04:57:57;;;;;;;10.10;4.63;;;;;;;;;;4866602;29;20038;-93
2021/03/05 05:00:34;;;;;;;10.75;3.58;;;;;;;;;;4870126;29;20045;-92
2021/03/05 05:03:44;;;;;;;9.43;3.78;;;2.90;99.90;;;;;;4843407;29;20510;-94
2021/03/05 05:06:31;;;;;;;15.10;4.82;;;;;;;;;;4887394;29;20039;-94
2021/03/05 05:09:18;;;;;;;13.00;2.92;;;;;;;;;;4864113;29;20037;-93
2021/03/05 05:12:02;;;;;;;21.50;4.13;;;2.70;99.90;;;;;;4865727;29;20077;-94
2021/03/05 05:14:40;;;;;;;17.83;4.50;;;;;;;;;;4882486;29;20057;-94
2021/03/05 05:17:32;;;;;;;10.85;3.47;;;;;;;;;;4865188;29;20055;-94
2021/03/05 05:20:34;;;;;;;10.35;4.80;;;2.80;99.90;;;;;;4864279;29;20057;-95
2021/03/05 05:23:18;;;;;;;12.23;5.30;;;;;;;;;;4886898;29;20049;-94
2021/03/05 05:25:50;;;;;;;12.75;3.65;;;;;;;;;;4897919;29;20064;-93
2021/03/05 05:28:42;;;;;;;;;;;2.70;99.90;;;;;;4869035;29;20043;-94
2021/03/05 05:31:33;;;;;;;11.35;3.83;;;;;;;;;;4880568;29;20547;-93
2021/03/05 05:34:55;;;;;;;20.08;3.53;;;2.60;99.90;;;;;;4834835;29;20157;-93
2021/03/05 05:37:28;;;;;;;12.70;3.85;;;;;;;;;;4829773;29;20059;-93
2021/03/05 05:40:18;;;;;;;11.52;3.88;;;;;;;;;;4863666;29;20049;-94
2021/03/05 05:42:48;;;;;;;15.13;4.43;;;2.60;99.90;;;;;;4827620;29;20050;-94
2021/03/05 05:45:46;;;;;;;11.75;3.65;;;;;;;;;;4854743;29;20057;-93
2021/03/05 05:48:45;;;;;;;16.25;3.72;;;;;;;;;;4845135;29;20050;-93
2021/03/05 05:51:44;;;;;;;14.50;3.70;;;;;;;;;;4860877;29;20050;-94
2021/03/05 05:54:40;;;;;;;10.88;4.60;;;2.40;99.90;;;;;;4854486;29;20061;-93
2021/03/05 05:57:48;;;;;;;9.48;3.95;;;;;;;;;;4831103;29;20056;-93
2021/03/05 06:00:39;;;;;;;18.23;3.72;;;;;;;;;;4848612;29;20061;-91
2021/03/05 06:03:19;;;;;;;;;;;2.40;99.90;;;;;;4853296;29;20061;-92
2021/03/05 06:06:06;;;;;;;11.52;3.42;;;;;;;;;;4876614;29;19943;-93
2021/03/05 06:09:00;;;;;;;29.75;5.03;;;;;;;;;;4836175;29;20070;-94
2021/03/05 06:11:43;;;;;;;28.88;8.18;;;;;;;;;;4838080;29;20067;-92
2021/03/05 06:14:14;;;;;;;28.38;6.10;;;;;;;;;;4859525;29;20056;-93
2021/03/05 06:17:01;;;;;;;13.55;4.13;;;;;;;;;;4851247;29;20058;-91
2021/03/05 06:19:37;;;;;;;15.32;4.20;;;;;;;;;;4839380;29;20057;-93
2021/03/05 06:22:25;;;;;;;11.52;3.28;;;;;;;;;;4843024;29;20058;-92
2021/03/05 06:24:58;;;;;;;8.73;3.28;;;;;;;;;;4835030;29;20059;-92
2021/03/05 06:27:51;;;;;;;17.65;5.97;;;;;;;;;;4840916;29;20052;-93
2021/03/05 06:30:30;;;;;;;12.88;4.07;;;;;;;;;;4837080;29;20050;-94
2021/03/05 06:33:00;;;;;;;14.43;4.15;;;;;;;;;;4841998;29;20046;-93
2021/03/05 06:35:31;;;;;;;11.18;4.72;;;;;;;;;;4834917;29;20064;-94
2021/03/05 06:38:02;;;;;;;10.88;3.95;;;;;;;;;;4857969;29;20061;-93
2021/03/05 06:40:45;;;;;;;13.23;4.47;;;;;;;;;;4843207;29;20276;-93
2021/03/05 06:43:19;;;;;;;15.15;5.30;;;;;;;;;;4818003;29;20050;-93
2021/03/05 06:46:25;;;;;;;12.07;3.97;;;;;;;;;;4847953;29;20068;-93
2021/03/05 06:48:55;;;;;;;19.90;4.30;;;;;;;;;;4840343;29;20054;-94
2021/03/05 06:51:58;;;;;;;15.95;3.63;;;2.20;99.90;;;;;;4823372;29;20064;-93
2021/03/05 06:54:35;;;;;;;18.38;4.75;;;;;;;;;;4838813;29;20498;-94
2021/03/05 06:57:27;;;;;;;10.98;4.43;;;;;;;;;;4850229;29;20058;-93
2021/03/05 07:00:22;;;;;;;12.85;3.50;;;;;;;;;;4851958;29;20064;-92
2021/03/05 07:02:55;;;;;;;23.55;4.28;;;;;;;;;;4826407;29;20064;-92
2021/03/05 07:05:54;;;;;;;9.40;3.22;;;;;;;;;;4834171;29;20050;-93
2021/03/05 07:08:44;;;;;;;22.80;5.68;;;;;;;;;;4849234;29;20040;-93
2021/03/05 07:11:34;;;;;;;8.30;4.57;;;;;;;;;;4852642;29;20060;-92
2021/03/05 07:14:08;;;;;;;19.55;4.20;;;;;;;;;;4825445;29;20053;-94
2021/03/05 07:16:55;;;;;;;15.27;4.72;;;;;;;;;;4862396;29;20041;-92
2021/03/05 07:19:56;;;;;;;15.25;4.97;;;;;;;;;;4853241;29;20056;-91
2021/03/05 07:22:57;;;;;;;16.90;4.00;;;;;;;;;;4844402;29;20054;-93
2021/03/05 07:25:51;;;;;;;13.43;3.90;;;;;;;;;;4848838;29;20065;-92
2021/03/05 07:29:21;;;;;;;21.90;5.25;;;;;;;;;;4845064;29;20059;-94
2021/03/05 07:32:55;;;;;;;5.78;4.93;;;;;;;;;;4843640;29;20058;-95
2021/03/05 07:36:12;;;;;;;12.07;4.07;;;;;;;;;;4520670;29;9999897;-94
2021/03/05 07:39:08;;;;;;;18.83;8.10;;;;;;;;;;4833282;29;20086;-95
2021/03/05 07:42:18;;;;;;;17.98;4.57;;;;;;;;;;4848779;29;20061;-94
2021/03/05 07:44:58;;;;;;;13.48;3.17;;;;;;;;;;4843903;29;20059;-95
2021/03/05 07:47:50;;;;;;;12.95;4.15;;;;;;;;;;4887128;23;20031;-94
2021/03/05 07:51:27;;;;;;;12.90;4.68;;;;;;;;;;4893332;29;20081;-94
2021/03/05 07:54:43;;;;;;;13.27;3.53;;;2.90;99.90;;;;;;4907322;29;20041;-94
2021/03/05 07:58:01;;;;;;;6.63;3.17;;;;;;;;;;4885982;29;20053;-93
2021/03/05 08:01:44;;;;;;;16.77;5.30;;;;;;;;;;4883468;29;20055;-95
2021/03/05 08:05:14;;;;;;;15.20;6.35;;;;;;;;;;4901360;29;20061;-95
2021/03/05 08:08:05;;;;;;;8.68;3.13;;;;;;;;;;4862077;29;20059;-94
2021/03/05 08:11:30;;;;;;;5.95;2.97;;;;;;;;;;4910779;29;20067;-95
2021/03/05 08:14:47;;;;;;;20.33;4.78;;;3.60;99.90;;;;;;4876432;29;20053;-94
2021/03/05 08:24:16;;;;;;;9.48;3.10;;;;;;;;;;4904205;23;20049;-92
2021/03/05 08:27:10;;;;;;;16.58;2.85;;;3.80;99.90;;;;;;4840984;29;20052;-93
2021/03/05 08:30:08;;;;;;;6.72;2.70;;;;;;;;;;4902856;29;20060;-93
2021/03/05 08:32:52;;;;;;;13.45;3.40;;;;;;;;;;4851575;29;20058;-93
2021/03/05 08:35:42;;;;;;;16.10;3.70;;;;;;;;;;4846771;29;20053;-94
2021/03/05 08:38:17;;;;;;;13.90;4.88;;;;;;;;;;4840714;29;20057;-93
2021/03/05 08:41:02;;;;;;;12.25;5.15;;;;;;;;;;4854622;29;20064;-93
2021/03/05 08:44:07;;;;;;;9.98;2.97;;;4.30;99.90;;;;;;4831846;29;20042;-92
2021/03/05 08:46:38;;;;;;;8.77;2.92;;;;;;;;;;4841635;29;20059;-91
2021/03/05 08:49:15;;;;;;;12.30;3.15;;;;;;;;;;4865829;29;20061;-94
2021/03/05 08:51:48;;;;;;;13.13;4.72;;;;;;;;;;4857690;29;20062;-93
2021/03/05 08:54:29;;;;;;;9.15;3.05;;;;;;;;;;4837233;29;20053;-92
2021/03/05 08:56:59;;;;;;;12.60;2.97;;;;;;;;;;4839093;29;20057;-93
2021/03/05 08:59:53;;;;;;;14.30;3.13;;;4.70;99.90;;;;;;4827477;29;20061;-94
2021/03/05 09:02:30;;;;;;;8.68;2.95;;;;;;;;;;4856325;29;20053;-93
2021/03/05 09:05:02;;;;;;;16.30;4.22;;;;;;;;;;4837287;29;20620;-94
2021/03/05 09:07:44;;;;;;;15.35;4.72;;;;;;;;;;4821287;29;20078;-93
2021/03/05 09:10:14;;;;;;;12.98;4.40;;;;;;;;;;4834748;29;20065;-93
2021/03/05 09:12:55;;;;;;;8.27;3.25;;;;;;;;;;4832717;29;20613;-94
2021/03/05 09:15:51;;;;;;;4.28;2.33;;;;;;;;;;4840057;29;20061;-95
2021/03/05 09:19:24;;;;;;;9.30;3.08;;;;;;;;;;4878031;29;20053;-95
2021/03/05 09:22:12;;;;;;;11.07;4.40;;;5.20;99.90;;;;;;4841309;29;20528;-93
2021/03/05 09:24:50;;;;;;;8.90;3.30;;;;;;;;;;4854451;29;20050;-93
2021/03/05 09:27:26;;;;;;;13.75;4.18;;;;;;;;;;4854966;29;20064;-93
2021/03/05 09:29:58;;;;;;;10.98;3.00;;;5.20;99.90;;;;;;4864725;29;20046;-94
2021/03/05 09:32:52;;;;;;;12.52;3.20;;;5.40;99.90;;;;;;4841680;29;20053;-93
2021/03/05 09:35:25;;;;;;;8.52;2.60;;;;;;;;;;4839153;29;20056;-93
2021/03/05 09:37:55;;;;;;;10.40;3.28;;;;;;;;;;4840777;29;20057;-95
2021/03/05 09:40:29;;;;;;;10.13;4.18;;;;;;;;;;4824451;29;20092;-92
2021/03/05 09:43:02;;;;;;;24.42;3.30;;;;;;;;;;4832189;29;20073;-94
2021/03/05 09:45:49;;;;;;;3.63;2.70;;;;;;;;;;4851171;29;20051;-92
2021/03/05 09:48:33;;;;;;;11.85;2.58;;;;;;;;;;4830591;29;20065;-94
2021/03/05 09:51:40;;;;;;;16.90;2.75;;;;;;;;;;4871957;29;20054;-94
2021/03/05 09:54:41;;;;;;;7.32;2.65;;;;;;;;;;4839380;29;20078;-95
2021/03/05 09:57:15;;;;;;;5.25;1.92;;;;;;;;;;4840586;29;20054;-94
2021/03/05 10:00:02;;;;;;;7.70;2.55;;;;;;;;;;4848572;29;20095;-92
2021/03/05 10:02:39;;;;;;;11.75;4.30;;;;;;;;;;4833077;29;20054;-93
2021/03/05 10:05:09;;;;;;;12.27;2.88;;;;;;;;;;4841446;29;20068;-93
2021/03/05 10:07:47;;;;;;;6.15;3.92;;;;;;;;;;4827646;29;20049;-93
2021/03/05 10:10:18;;;;;;;12.27;5.43;;;;;;;;;;4841832;29;20414;-92
2021/03/05 10:13:29;;;;;;;6.57;4.30;;;;;;;;;;4877483;29;20061;-93
2021/03/05 10:16:00;;;;;;;8.18;2.45;;;;;;;;;;4835746;29;20049;-95
2021/03/05 10:18:49;;;;;;;6.00;3.83;;;;;;;;;;4849192;29;20065;-95
2021/03/05 10:21:36;;;;;;;8.85;4.15;;;;;;;;;;4835225;29;20080;-94
2021/03/05 10:24:26;;;;;;;4.72;1.90;;;;;;;;;;4863160;29;20057;-95
2021/03/05 10:27:38;;;;;;;9.65;3.22;;;;;;;;;;4858341;29;20045;-96
2021/03/05 10:30:28;;;;;;;4.40;3.03;;;;;;;;;;4852606;29;20058;-95
2021/03/05 10:33:57;;;;;;;5.78;2.17;;;6.30;99.90;;;;;;4871304;29;20068;-96
2021/03/05 10:37:05;;;;;;;10.55;4.30;;;;;;;;;;4856065;29;20068;-95
2021/03/05 10:40:24;;;;;;;10.20;2.42;;;;;;;;;;4860191;29;20053;-94
2021/03/05 10:43:11;;;;;;;8.02;2.28;;;;;;;;;;4877257;29;20419;-95
2021/03/05 10:46:14;;;;;;;4.80;2.65;;;;;;;;;;4870216;29;20041;-93
2021/03/05 10:48:46;;;;;;;5.30;1.90;;;;;;;;;;4836987;29;20064;-95
2021/03/05 10:51:17;;;;;;;5.07;1.77;;;;;;;;;;4856920;29;20076;-92
2021/03/05 10:53:55;;;;;;;2.40;1.83;;;;;;;;;;4860009;29;20421;-93
2021/03/05 10:56:28;;;;;;;7.47;2.70;;;;;;;;;;4819978;29;20052;-93
2021/03/05 10:59:11;;;;;;;3.35;1.70;;;;;;;;;;4849191;29;20518;-92
2021/03/05 11:05:16;;;;;;;4.55;1.95;;;;;;;;;;5546854;23;20060;-84
2021/03/05 11:07:51;;;;;;;6.50;2.25;;;;;;;;;;4496890;29;9999602;-82
2021/03/05 11:10:19;;;;;;;4.40;1.65;;;7.20;99.90;;;;;;4839556;29;20064;-82
2021/03/05 11:12:48;;;;;;;5.25;1.77;;;7.20;99.90;;;;;;4826683;29;20053;-83
2021/03/05 11:15:17;;;;;;;9.20;1.75;;;7.00;99.90;;;;;;4825293;29;20080;-84
2021/03/05 11:17:45;;;;;;;9.18;3.42;;;;;;;;;;4861715;29;20065;-83
2021/03/05 11:20:16;;;;;;;3.72;2.08;;;;;;;;;;4839063;29;20049;-81
2021/03/05 11:22:43;;;;;;;1.85;1.58;;;;;;;;;;4857479;29;20053;-82
2021/03/05 11:25:16;;;;;;;5.38;2.80;;;;;;;;;;4856903;29;20065;-82
2021/03/05 11:27:44;;;;;;;;;;;7.50;99.90;;;;;;4858240;29;20049;-85
2021/03/05 11:30:12;;;;;;;6.43;1.95;;;;;;;;;;4824969;29;19943;-83
2021/03/05 11:32:40;;;;;;;8.27;2.92;;;;;;;;;;4821046;29;20053;-82
2021/03/05 11:35:08;;;;;;;4.30;2.00;;;;;;;;;;4838881;29;20075;-83
2021/03/05 11:37:38;;;;;;;13.05;1.85;;;;;;;;;;4825617;29;20065;-82
2021/03/05 11:40:06;;;;;;;6.70;2.42;;;8.00;99.90;;;;;;4842309;29;20046;-83
2021/03/05 11:42:35;;;;;;;14.20;2.90;;;;;;;;;;4831584;29;20072;-84
2021/03/05 11:45:05;;;;;;;7.10;1.95;;;;;;;;;;4822060;29;20049;-83
2021/03/05 11:47:33;;;;;;;4.72;2.25;;;8.10;99.90;;;;;;4855586;29;20064;-83
2021/03/05 11:50:03;;;;;;;16.95;3.90;;;8.00;99.90;;;;;;4834578;29;20073;-83
2021/03/05 11:52:31;;;;;;;6.28;1.95;;;;;;;;;;4848344;29;20057;-82
2021/03/05 11:55:00;;;;;;;6.05;2.60;;;;;;;;;;4837031;29;20072;-84
2021/03/05 11:57:28;;;;;;;4.75;1.90;;;;;;;;;;4849158;29;20061;-82
2021/03/05 11:59:56;;;;;;;4.15;1.98;;;;;;;;;;4849722;29;20060;-82
2021/03/05 12:02:25;;;;;;;8.02;2.20;;;;;;;;;;4850655;29;20056;-84
2021/03/05 12:04:57;;;;;;;7.00;1.92;;;;;;;;;;4843391;29;20050;-84
2021/03/05 12:07:28;;;;;;;6.85;2.47;;;8.20;99.70;;;;;;4842828;29;20057;-86
2021/03/05 12:09:57;;;;;;;7.07;2.80;;;;;;;;;;4820637;29;20061;-88
2021/03/05 12:12:25;;;;;;;7.63;1.85;;;;;;;;;;4818267;29;20840;-83
2021/03/05 12:14:53;;;;;;;4.38;1.98;;;;;;;;;;4828588;29;20062;-82
2021/03/05 12:17:20;;;;;;;9.68;2.47;;;;;;;;;;4831925;29;20062;-83
2021/03/05 12:19:48;;;;;;;2.67;1.88;;;;;;;;;;4830788;29;20054;-84
2021/03/05 12:22:17;;;;;;;5.03;1.90;;;;;;;;;;4818433;29;20065;-82
2021/03/05 12:24:45;;;;;;;9.25;2.22;;;;;;;;;;4805042;29;20057;-83
2021/03/05 12:27:13;;;;;;;10.20;1.70;;;;;;;;;;4838932;29;20065;-82
2021/03/05 12:29:41;;;;;;;4.50;1.95;;;;;;;;;;4806880;29;20058;-83
2021/03/05 12:32:11;;;;;;;7.13;1.55;;;8.80;96.00;;;;;;4817591;29;20054;-85
2021/03/05 12:34:39;;;;;;;4.45;2.53;;;;;;;;;;4825596;29;20069;-82
2021/03/05 12:37:09;;;;;;;5.47;1.63;;;;;;;;;;4814788;29;21430;-85
2021/03/05 12:39:37;;;;;;;4.97;1.52;;;;;;;;;;4826334;29;20045;-84
2021/03/05 12:42:05;;;;;;;6.93;2.42;;;;;;;;;;4830411;29;20046;-84
2021/03/05 12:44:33;;;;;;;4.85;2.53;;;;;;;;;;4821804;29;20066;-84
2021/03/05 12:47:01;;;;;;;7.32;2.50;;;;;;;;;;4836381;29;20062;-82
2021/03/05 12:49:33;;;;;;;4.40;1.90;;;;;;;;;;4842788;29;20070;-84
2021/03/05 12:52:01;;;;;;;11.18;2.38;;;;;;;;;;4823806;29;20054;-84
2021/03/05 12:54:28;;;;;;;5.00;2.45;;;;;;;;;;4846004;29;20054;-83
2021/03/05 12:56:58;;;;;;;6.20;2.10;;;;;;;;;;4818219;29;20058;-84
2021/03/05 12:59:26;;;;;;;10.98;3.40;;;;;;;;;;4840637;29;20130;-84
2021/03/05 13:01:56;;;;;;;10.30;2.17;;;;;;;;;;4822855;29;20064;-84
2021/03/05 13:04:30;;;;;;;14.10;2.63;;;;;;;;;;4836189;29;20061;-84
2021/03/05 13:06:58;;;;;;;5.90;2.25;;;;;;;;;;4486621;29;9999861;-83
2021/03/05 13:09:26;;;;;;;8.30;2.45;;;;;;;;;;4824606;29;20058;-85
2021/03/05 13:11:56;;;;;;;13.02;3.45;;;;;;;;;;4817153;29;20062;-84
2021/03/05 13:14:32;;;;;;;7.93;2.47;;;;;;;;;;4832205;29;20348;-82
2021/03/05 13:17:01;;;;;;;9.18;2.35;;;;;;;;;;4830066;29;20073;-83
2021/03/05 13:19:29;;;;;;;8.70;3.05;;;;;;;;;;4831731;29;20093;-83
2021/03/05 13:21:59;;;;;;;8.93;2.45;;;8.30;97.10;;;;;;4829496;29;20065;-85
2021/03/05 13:24:28;;;;;;;6.82;2.63;;;;;;;;;;4831564;29;20485;-84
2021/03/05 13:26:56;;;;;;;7.63;2.00;;;;;;;;;;4815528;29;20083;-85
2021/03/05 13:29:24;;;;;;;5.88;2.40;;;;;;;;;;4818118;29;20056;-82
2021/03/05 13:31:53;;;;;;;5.75;1.55;;;;;;;;;;4838810;29;20323;-83
2021/03/05 13:34:21;;;;;;;9.23;2.22;;;;;;;;;;4814616;29;20069;-83
2021/03/05 13:36:51;;;;;;;12.98;3.05;;;;;;;;;;4831033;29;20410;-83
2021/03/05 13:39:23;;;;;;;9.85;2.70;;;;;;;;;;4829150;29;20793;-83
2021/03/05 13:41:52;;;;;;;9.00;2.75;;;;;;;;;;4812793;29;20065;-83
2021/03/05 13:44:19;;;;;;;11.38;2.63;;;;;;;;;;4819666;29;20061;-83
2021/03/05 13:46:47;;;;;;;7.03;2.80;;;;;;;;;;4824133;29;20058;-83
2021/03/05 13:49:15;;;;;;;8.45;2.50;;;;;;;;;;4841944;29;20061;-85
2021/03/05 13:51:43;;;;;;;2.95;1.98;;;;;;;;;;4813339;29;20062;-85
2021/03/05 13:54:12;;;;;;;5.20;2.85;;;;;;;;;;4831736;29;20053;-81
2021/03/05 13:56:40;;;;;;;3.95;1.63;;;;;;;;;;4825537;29;20176;-83
2021/03/05 13:59:08;;;;;;;5.85;1.75;;;;;;;;;;4832526;29;20058;-83
2021/03/05 14:01:35;;;;;;;2.80;2.05;;;;;;;;;;4826755;29;20065;-84
2021/03/05 14:04:04;;;;;;;9.15;2.55;;;;;;;;;;4818161;29;20066;-83
2021/03/05 14:06:31;;;;;;;11.45;2.65;;;;;;;;;;4829836;29;20057;-84
2021/03/05 14:09:00;;;;;;;13.10;2.33;;;;;;;;;;4801249;29;20065;-84
2021/03/05 14:11:30;;;;;;;3.60;1.80;;;;;;;;;;4803306;29;20078;-83
2021/03/05 14:14:00;;;;;;;5.43;3.00;;;;;;;;;;4810172;29;20058;-84
2021/03/05 14:16:33;;;;;;;12.18;2.63;;;;;;;;;;4832699;29;20096;-83
2021/03/05 14:19:04;;;;;;;4.87;2.23;;;;;;;;;;4814877;29;20054;-83
2021/03/05 14:21:32;;;;;;;11.10;4.10;;;;;;;;;;4831412;29;20093;-83
2021/03/05 14:24:03;;;;;;;11.48;5.60;;;;;;;;;;4805374;29;20041;-83
2021/03/05 14:26:31;;;;;;;15.77;3.85;;;;;;;;;;4826675;29;20050;-83
2021/03/05 14:29:00;;;;;;;5.95;2.20;;;;;;;;;;4830496;29;20452;-83
2021/03/05 14:31:29;;;;;;;6.10;2.50;;;;;;;;;;4833119;29;20148;-83
2021/03/05 14:33:58;;;;;;;10.43;3.03;;;;;;;;;;4813852;29;20042;-82
2021/03/05 14:36:26;;;;;;;10.40;3.28;;;;;;;;;;4814652;29;20057;-85
2021/03/05 14:38:54;;;;;;;6.20;3.45;;;;;;;;;;4834329;29;20129;-83
2021/03/05 14:41:22;;;;;;;21.15;4.38;;;;;;;;;;4821825;29;20061;-84
2021/03/05 14:43:50;;;;;;;5.05;2.13;;;;;;;;;;4801892;29;20057;-87
2021/03/05 14:46:27;;;;;;;5.45;3.00;;;;;;;;;;4828015;29;20058;-85
2021/03/05 14:48:55;;;;;;;6.20;3.30;;;;;;;;;;4801706;29;20050;-85
2021/03/05 14:51:24;;;;;;;11.30;2.38;;;;;;;;;;4822303;29;20062;-85
2021/03/05 14:53:54;;;;;;;9.63;2.88;;;;;;;;;;4830758;29;20055;-83
2021/03/05 14:56:23;;;;;;;11.02;3.20;;;;;;;;;;4815929;29;20050;-85
2021/03/05 14:58:51;;;;;;;8.52;2.95;;;;;;;;;;4832674;29;20419;-84
2021/03/05 15:01:18;;;;;;;8.68;2.08;;;;;;;;;;4830752;29;20057;-82
2021/03/05 15:03:52;;;;;;;6.78;2.45;;;8.10;97.20;;;;;;4829967;29;20054;-86
2021/03/05 15:06:25;;;;;;;4.68;3.38;;;;;;;;;;4817867;29;20066;-85
2021/03/05 15:08:54;;;;;;;9.95;3.10;;;;;;;;;;4837928;29;20065;-86
2021/03/05 15:11:22;;;;;;;7.93;2.35;;;;;;;;;;4826028;29;20420;-85
2021/03/05 15:13:50;;;;;;;7.15;3.17;;;;;;;;;;4847476;29;20050;-87
2021/03/05 15:16:18;;;;;;;12.88;2.28;;;;;;;;;;4844868;29;20046;-85
2021/03/05 15:18:46;;;;;;;8.15;2.17;;;;;;;;;;4834242;29;20068;-85
2021/03/05 15:21:18;;;;;;;7.73;3.40;;;;;;;;;;4813214;29;20512;-84
2021/03/05 15:23:47;;;;;;;11.10;3.15;;;;;;;;;;4837362;29;20317;-85
2021/03/05 15:26:14;;;;;;;8.20;3.28;;;;;;;;;;4827406;29;20324;-87
2021/03/05 15:28:45;;;;;;;9.18;2.67;;;;;;;;;;4812652;29;20054;-87
2021/03/05 15:31:14;;;;;;;;;;;7.90;99.90;;;;;;4810406;29;20077;-86
2021/03/05 15:33:43;;;;;;;9.35;3.55;;;;;;;;;;4840175;29;19936;-82
2021/03/05 15:36:11;;;;;;;9.05;3.83;;;;;;;;;;4815826;29;20053;-84
2021/03/05 15:38:40;;;;;;;12.15;3.47;;;;;;;;;;4813444;29;20061;-84
2021/03/05 15:41:08;;;;;;;10.00;3.78;;;;;;;;;;4819748;29;20061;-84
2021/03/05 15:43:37;;;;;;;11.57;5.07;;;;;;;;;;4802391;29;20376;-84
2021/03/05 15:46:07;;;;;;;19.25;4.78;;;;;;;;;;4816198;29;20050;-82
2021/03/05 15:48:38;;;;;;;8.52;3.03;;;;;;;;;;4806648;29;20075;-84
2021/03/05 15:51:10;;;;;;;9.70;2.75;;;;;;;;;;4833283;29;20447;-88
2021/03/05 15:53:42;;;;;;;7.28;2.58;;;;;;;;;;4791669;29;20461;-84